sensor_id;sensor_type;location;lat;lon;timestamp;temperature;humidity
55795;DHT22;41716;51.910;4.430;2023-04-03T00:00:55;7.50;99.90
55795;DHT22;41716;51.910;4.430;2023-04-03T00:05:59;7.40;99.90
55795;DHT22;41716;51.910;4.430;2023-04-03T00:11:01;7.50;99.90
55795;DHT22;41716;51.910;4.430;2023-04-03T00:16:03;7.60;99.90
55795;DHT22;41716;51.910;4.430;2023-04-03T00:21:07;7.70;99.90
55795;DHT22;41716;51.910;4.430;2023-04-03T00:26:09;7.70;99.90
55795;DHT22;41716;51.910;4.430;2023-04-03T00:31:14;7.50;99.90
55795;DHT22;41716;51.910;4.430;2023-04-03T00:36:17;7.60;99.90
55795;DHT22;41716;51.910;4.430;2023-04-03T00:41:18;7.50;99.90
55795;DHT22;41716;51.910;4.430;2023-04-03T00:46:20;7.30;99.90
55795;DHT22;41716;51.910;4.430;2023-04-03T00:51:25;7.30;99.90
55795;DHT22;41716;51.910;4.430;2023-04-03T00:56:28;7.30;99.90
55795;DHT22;41716;51.910;4.430;2023-04-03T01:01:31;7.20;99.90
55795;DHT22;41716;51.910;4.430;2023-04-03T01:06:36;7.20;99.90
55795;DHT22;41716;51.910;4.430;2023-04-03T01:11:38;7.10;99.90
55795;DHT22;41716;51.910;4.430;2023-04-03T01:16:40;7.00;99.90
55795;DHT22;41716;51.910;4.430;2023-04-03T01:22:06;7.00;99.90
55795;DHT22;41716;51.910;4.430;2023-04-03T01:27:12;6.80;99.90
55795;DHT22;41716;51.910;4.430;2023-04-03T01:32:15;6.90;99.90
55795;DHT22;41716;51.910;4.430;2023-04-03T01:37:17;6.90;99.90
55795;DHT22;41716;51.910;4.430;2023-04-03T01:42:18;6.60;99.90
55795;DHT22;41716;51.910;4.430;2023-04-03T01:47:22;6.60;99.90
55795;DHT22;41716;51.910;4.430;2023-04-03T01:52:24;6.50;99.90
55795;DHT22;41716;51.910;4.430;2023-04-03T01:57:26;6.40;99.90
55795;DHT22;41716;51.910;4.430;2023-04-03T02:02:29;6.40;99.90
55795;DHT22;41716;51.910;4.430;2023-04-03T02:07:31;6.40;99.90
55795;DHT22;41716;51.910;4.430;2023-04-03T02:12:32;6.30;99.90
55795;DHT22;41716;51.910;4.430;2023-04-03T02:17:36;6.10;99.90
55795;DHT22;41716;51.910;4.430;2023-04-03T02:22:37;6.20;99.90
55795;DHT22;41716;51.910;4.430;2023-04-03T02:27:39;6.00;99.90
55795;DHT22;41716;51.910;4.430;2023-04-03T02:32:43;6.10;99.90
55795;DHT22;41716;51.910;4.430;2023-04-03T02:37:45;6.00;99.90
55795;DHT22;41716;51.910;4.430;2023-04-03T02:42:46;5.90;99.90
55795;DHT22;41716;51.910;4.430;2023-04-03T02:47:49;5.90;99.90
55795;DHT22;41716;51.910;4.430;2023-04-03T02:52:51;5.80;99.90
55795;DHT22;41716;51.910;4.430;2023-04-03T02:57:53;5.80;99.90
55795;DHT22;41716;51.910;4.430;2023-04-03T03:02:56;5.90;99.90
55795;DHT22;41716;51.910;4.430;2023-04-03T03:07:58;5.80;99.90
55795;DHT22;41716;51.910;4.430;2023-04-03T03:13:00;5.70;99.90
55795;DHT22;41716;51.910;4.430;2023-04-03T03:18:03;5.70;99.90
55795;DHT22;41716;51.910;4.430;2023-04-03T03:23:05;5.70;99.90
55795;DHT22;41716;51.910;4.430;2023-04-03T03:28:07;5.60;99.90
55795;DHT22;41716;51.910;4.430;2023-04-03T03:33:10;5.60;99.90
55795;DHT22;41716;51.910;4.430;2023-04-03T03:38:12;5.60;99.90
55795;DHT22;41716;51.910;4.430;2023-04-03T03:43:13;5.70;99.90
55795;DHT22;41716;51.910;4.430;2023-04-03T03:48:17;5.50;99.90
55795;DHT22;41716;51.910;4.430;2023-04-03T03:53:18;5.50;99.90
55795;DHT22;41716;51.910;4.430;2023-04-03T03:58:20;5.50;99.90
55795;DHT22;41716;51.910;4.430;2023-04-03T04:03:23;5.40;99.90
55795;DHT22;41716;51.910;4.430;2023-04-03T04:08:25;5.40;99.90
55795;DHT22;41716;51.910;4.430;2023-04-03T04:13:27;5.30;99.90
55795;DHT22;41716;51.910;4.430;2023-04-03T04:18:30;5.30;99.90
55795;DHT22;41716;51.910;4.430;2023-04-03T04:23:31;5.20;99.90
55795;DHT22;41716;51.910;4.430;2023-04-03T04:28:33;5.20;99.90
55795;DHT22;41716;51.910;4.430;2023-04-03T04:33:36;4.90;99.90
55795;DHT22;41716;51.910;4.430;2023-04-03T04:38:38;5.00;99.90
55795;DHT22;41716;51.910;4.430;2023-04-03T04:43:40;4.90;99.90
55795;DHT22;41716;51.910;4.430;2023-04-03T04:48:43;5.00;99.90
55795;DHT22;41716;51.910;4.430;2023-04-03T04:53:45;4.90;99.90
55795;DHT22;41716;51.910;4.430;2023-04-03T04:58:47;4.90;99.90
55795;DHT22;41716;51.910;4.430;2023-04-03T05:03:50;4.90;99.90
55795;DHT22;41716;51.910;4.430;2023-04-03T05:08:52;4.90;99.90
55795;DHT22;41716;51.910;4.430;2023-04-03T05:13:53;4.90;99.90
55795;DHT22;41716;51.910;4.430;2023-04-03T05:18:56;4.60;99.90
55795;DHT22;41716;51.910;4.430;2023-04-03T05:23:58;4.60;99.90
55795;DHT22;41716;51.910;4.430;2023-04-03T05:29:03;4.60;99.90
55795;DHT22;41716;51.910;4.430;2023-04-03T05:34:06;4.80;99.90
55795;DHT22;41716;51.910;4.430;2023-04-03T05:39:08;4.70;99.90
55795;DHT22;41716;51.910;4.430;2023-04-03T05:44:10;4.70;99.90
55795;DHT22;41716;51.910;4.430;2023-04-03T05:49:13;4.90;99.90
55795;DHT22;41716;51.910;4.430;2023-04-03T05:54:18;4.80;99.90
55795;DHT22;41716;51.910;4.430;2023-04-03T05:59:21;4.90;99.90
55795;DHT22;41716;51.910;4.430;2023-04-03T06:04:24;5.00;99.90
55795;DHT22;41716;51.910;4.430;2023-04-03T06:09:28;5.40;99.90
55795;DHT22;41716;51.910;4.430;2023-04-03T06:14:30;5.50;99.90
55795;DHT22;41716;51.910;4.430;2023-04-03T06:19:33;5.60;99.90
55795;DHT22;41716;51.910;4.430;2023-04-03T06:24:35;5.90;99.90
55795;DHT22;41716;51.910;4.430;2023-04-03T06:29:37;6.30;99.90
55795;DHT22;41716;51.910;4.430;2023-04-03T06:34:40;6.30;99.90
55795;DHT22;41716;51.910;4.430;2023-04-03T06:39:43;6.80;99.90
55795;DHT22;41716;51.910;4.430;2023-04-03T06:44:45;7.10;99.90
55795;DHT22;41716;51.910;4.430;2023-04-03T06:49:48;7.50;99.90
55795;DHT22;41716;51.910;4.430;2023-04-03T06:54:50;7.70;99.90
55795;DHT22;41716;51.910;4.430;2023-04-03T06:59:57;8.10;99.90
55795;DHT22;41716;51.910;4.430;2023-04-03T07:05:00;8.10;99.90
55795;DHT22;41716;51.910;4.430;2023-04-03T07:10:03;8.60;99.90
55795;DHT22;41716;51.910;4.430;2023-04-03T07:15:07;8.70;99.90
55795;DHT22;41716;51.910;4.430;2023-04-03T07:20:11;9.00;99.90
55795;DHT22;41716;51.910;4.430;2023-04-03T07:25:12;9.20;99.90
55795;DHT22;41716;51.910;4.430;2023-04-03T07:30:14;9.50;99.90
55795;DHT22;41716;51.910;4.430;2023-04-03T07:35:18;10.10;99.90
55795;DHT22;41716;51.910;4.430;2023-04-03T07:40:20;10.60;99.90
55795;DHT22;41716;51.910;4.430;2023-04-03T07:45:22;10.80;99.90
55795;DHT22;41716;51.910;4.430;2023-04-03T07:50:25;11.10;99.90
55795;DHT22;41716;51.910;4.430;2023-04-03T07:55:27;11.40;99.90
55795;DHT22;41716;51.910;4.430;2023-04-03T08:00:29;11.90;99.90
55795;DHT22;41716;51.910;4.430;2023-04-03T08:05:36;12.10;99.90
55795;DHT22;41716;51.910;4.430;2023-04-03T08:10:38;12.40;99.90
55795;DHT22;41716;51.910;4.430;2023-04-03T08:15:40;12.70;99.90
55795;DHT22;41716;51.910;4.430;2023-04-03T08:20:43;12.90;99.90
55795;DHT22;41716;51.910;4.430;2023-04-03T08:25:46;13.30;99.90
55795;DHT22;41716;51.910;4.430;2023-04-03T08:30:47;13.60;99.90
55795;DHT22;41716;51.910;4.430;2023-04-03T08:35:51;13.80;99.90
55795;DHT22;41716;51.910;4.430;2023-04-03T08:41:01;14.10;99.90
55795;DHT22;41716;51.910;4.430;2023-04-03T08:46:05;14.50;99.90
55795;DHT22;41716;51.910;4.430;2023-04-03T08:51:13;14.60;99.90
55795;DHT22;41716;51.910;4.430;2023-04-03T08:56:16;14.80;99.90
55795;DHT22;41716;51.910;4.430;2023-04-03T09:01:23;15.50;99.90
55795;DHT22;41716;51.910;4.430;2023-04-03T09:06:31;15.80;99.90
55795;DHT22;41716;51.910;4.430;2023-04-03T09:11:44;14.90;99.90
55795;DHT22;41716;51.910;4.430;2023-04-03T09:16:52;15.70;99.90
55795;DHT22;41716;51.910;4.430;2023-04-03T09:21:58;15.90;99.90
55795;DHT22;41716;51.910;4.430;2023-04-03T09:27:04;16.90;99.90
55795;DHT22;41716;51.910;4.430;2023-04-03T09:32:19;17.00;99.90
55795;DHT22;41716;51.910;4.430;2023-04-03T09:37:39;17.30;99.90
55795;DHT22;41716;51.910;4.430;2023-04-03T09:42:42;17.10;99.40
55795;DHT22;41716;51.910;4.430;2023-04-03T09:47:47;17.90;98.50
55795;DHT22;41716;51.910;4.430;2023-04-03T09:52:51;17.80;93.40
55795;DHT22;41716;51.910;4.430;2023-04-03T09:57:54;17.60;90.80
55795;DHT22;41716;51.910;4.430;2023-04-03T10:02:56;18.00;87.20
55795;DHT22;41716;51.910;4.430;2023-04-03T10:08:17;18.30;85.30
55795;DHT22;41716;51.910;4.430;2023-04-03T10:13:20;18.50;83.70
55795;DHT22;41716;51.910;4.430;2023-04-03T10:18:31;18.50;79.40
55795;DHT22;41716;51.910;4.430;2023-04-03T10:23:39;18.10;79.20
55795;DHT22;41716;51.910;4.430;2023-04-03T10:28:47;18.60;78.60
55795;DHT22;41716;51.910;4.430;2023-04-03T10:33:59;19.10;80.10
55795;DHT22;41716;51.910;4.430;2023-04-03T10:39:09;19.90;77.70
55795;DHT22;41716;51.910;4.430;2023-04-03T10:44:19;18.90;77.70
55795;DHT22;41716;51.910;4.430;2023-04-03T10:49:34;19.80;76.00
55795;DHT22;41716;51.910;4.430;2023-04-03T10:54:42;19.60;72.50
55795;DHT22;41716;51.910;4.430;2023-04-03T10:59:48;19.30;74.50
55795;DHT22;41716;51.910;4.430;2023-04-03T11:04:55;19.70;72.40
55795;DHT22;41716;51.910;4.430;2023-04-03T11:10:03;20.20;72.50
55795;DHT22;41716;51.910;4.430;2023-04-03T11:15:12;20.60;70.90
55795;DHT22;41716;51.910;4.430;2023-04-03T11:20:18;21.20;70.30
55795;DHT22;41716;51.910;4.430;2023-04-03T11:25:24;21.00;68.30
55795;DHT22;41716;51.910;4.430;2023-04-03T11:30:30;20.40;70.10
55795;DHT22;41716;51.910;4.430;2023-04-03T11:35:34;20.90;69.60
55795;DHT22;41716;51.910;4.430;2023-04-03T11:40:39;20.20;68.40
55795;DHT22;41716;51.910;4.430;2023-04-03T11:45:50;20.80;66.20
55795;DHT22;41716;51.910;4.430;2023-04-03T11:50:55;21.20;64.10
55795;DHT22;41716;51.910;4.430;2023-04-03T11:56:00;21.70;60.00
55795;DHT22;41716;51.910;4.430;2023-04-03T12:01:07;20.60;56.90
55795;DHT22;41716;51.910;4.430;2023-04-03T12:11:51;19.60;57.30
55795;DHT22;41716;51.910;4.430;2023-04-03T12:16:54;21.40;57.80
55795;DHT22;41716;51.910;4.430;2023-04-03T12:22:10;20.60;59.30
55795;DHT22;41716;51.910;4.430;2023-04-03T12:27:20;20.70;57.90
55795;DHT22;41716;51.910;4.430;2023-04-03T12:32:40;20.30;59.10
55795;DHT22;41716;51.910;4.430;2023-04-03T12:38:05;20.40;59.10
55795;DHT22;41716;51.910;4.430;2023-04-03T12:43:32;20.30;59.50
55795;DHT22;41716;51.910;4.430;2023-04-03T12:48:39;20.60;60.00
55795;DHT22;41716;51.910;4.430;2023-04-03T12:53:48;20.50;60.20
55795;DHT22;41716;51.910;4.430;2023-04-03T12:58:53;20.10;60.90
55795;DHT22;41716;51.910;4.430;2023-04-03T13:03:57;20.70;60.70
55795;DHT22;41716;51.910;4.430;2023-04-03T13:09:01;21.40;61.20
55795;DHT22;41716;51.910;4.430;2023-04-03T13:14:15;21.30;62.00
55795;DHT22;41716;51.910;4.430;2023-04-03T13:19:19;21.00;62.20
55795;DHT22;41716;51.910;4.430;2023-04-03T13:24:21;21.20;61.80
55795;DHT22;41716;51.910;4.430;2023-04-03T13:29:28;20.50;61.10
55795;DHT22;41716;51.910;4.430;2023-04-03T13:34:36;20.90;63.60
55795;DHT22;41716;51.910;4.430;2023-04-03T13:39:39;20.60;62.50
55795;DHT22;41716;51.910;4.430;2023-04-03T13:44:42;20.80;62.80
55795;DHT22;41716;51.910;4.430;2023-04-03T13:49:46;20.00;65.20
55795;DHT22;41716;51.910;4.430;2023-04-03T13:55:01;20.40;63.70
55795;DHT22;41716;51.910;4.430;2023-04-03T14:05:35;20.80;64.50
55795;DHT22;41716;51.910;4.430;2023-04-03T14:10:37;20.40;63.00
55795;DHT22;41716;51.910;4.430;2023-04-03T14:15:40;20.00;61.90
55795;DHT22;41716;51.910;4.430;2023-04-03T14:20:44;20.00;61.40
55795;DHT22;41716;51.910;4.430;2023-04-03T14:25:46;19.10;62.40
55795;DHT22;41716;51.910;4.430;2023-04-03T14:30:49;19.90;61.70
55795;DHT22;41716;51.910;4.430;2023-04-03T14:35:53;19.30;61.70
55795;DHT22;41716;51.910;4.430;2023-04-03T14:40:55;18.60;63.00
55795;DHT22;41716;51.910;4.430;2023-04-03T14:45:57;19.50;63.10
55795;DHT22;41716;51.910;4.430;2023-04-03T14:51:00;18.70;63.40
55795;DHT22;41716;51.910;4.430;2023-04-03T14:56:02;18.80;65.00
55795;DHT22;41716;51.910;4.430;2023-04-03T15:01:03;18.60;65.40
55795;DHT22;41716;51.910;4.430;2023-04-03T15:06:08;18.50;65.00
55795;DHT22;41716;51.910;4.430;2023-04-03T15:11:11;18.00;66.40
55795;DHT22;41716;51.910;4.430;2023-04-03T15:16:15;18.00;65.60
55795;DHT22;41716;51.910;4.430;2023-04-03T15:21:19;17.90;65.60
55795;DHT22;41716;51.910;4.430;2023-04-03T15:26:20;17.60;67.20
55795;DHT22;41716;51.910;4.430;2023-04-03T15:31:22;17.90;67.20
55795;DHT22;41716;51.910;4.430;2023-04-03T15:36:25;17.30;67.40
55795;DHT22;41716;51.910;4.430;2023-04-03T15:41:27;17.50;68.00
55795;DHT22;41716;51.910;4.430;2023-04-03T15:46:29;16.00;68.30
55795;DHT22;41716;51.910;4.430;2023-04-03T15:51:32;16.60;69.70
55795;DHT22;41716;51.910;4.430;2023-04-03T15:56:33;15.60;71.20
55795;DHT22;41716;51.910;4.430;2023-04-03T16:01:36;16.00;70.90
55795;DHT22;41716;51.910;4.430;2023-04-03T16:06:40;15.90;70.70
55795;DHT22;41716;51.910;4.430;2023-04-03T16:11:42;15.80;71.00
55795;DHT22;41716;51.910;4.430;2023-04-03T16:16:44;15.90;70.80
55795;DHT22;41716;51.910;4.430;2023-04-03T16:21:47;15.40;72.30
55795;DHT22;41716;51.910;4.430;2023-04-03T16:26:49;15.40;72.50
55795;DHT22;41716;51.910;4.430;2023-04-03T16:31:51;15.20;73.00
55795;DHT22;41716;51.910;4.430;2023-04-03T16:36:54;15.10;73.50
55795;DHT22;41716;51.910;4.430;2023-04-03T16:41:55;15.00;74.40
55795;DHT22;41716;51.910;4.430;2023-04-03T16:46:57;14.70;73.90
55795;DHT22;41716;51.910;4.430;2023-04-03T16:52:00;14.70;74.70
55795;DHT22;41716;51.910;4.430;2023-04-03T16:57:02;14.50;74.70
55795;DHT22;41716;51.910;4.430;2023-04-03T17:02:04;14.30;75.60
55795;DHT22;41716;51.910;4.430;2023-04-03T17:07:07;14.30;76.10
55795;DHT22;41716;51.910;4.430;2023-04-03T17:12:09;14.00;76.40
55795;DHT22;41716;51.910;4.430;2023-04-03T17:17:11;14.00;76.90
55795;DHT22;41716;51.910;4.430;2023-04-03T17:22:14;13.90;76.90
55795;DHT22;41716;51.910;4.430;2023-04-03T17:27:17;13.70;77.50
55795;DHT22;41716;51.910;4.430;2023-04-03T17:32:19;13.40;78.10
55795;DHT22;41716;51.910;4.430;2023-04-03T17:37:22;13.20;78.40
55795;DHT22;41716;51.910;4.430;2023-04-03T17:42:24;13.20;79.00
55795;DHT22;41716;51.910;4.430;2023-04-03T17:47:26;13.10;79.70
55795;DHT22;41716;51.910;4.430;2023-04-03T17:52:29;13.10;80.60
55795;DHT22;41716;51.910;4.430;2023-04-03T17:57:31;13.00;80.70
55795;DHT22;41716;51.910;4.430;2023-04-03T18:02:33;13.00;81.30
55795;DHT22;41716;51.910;4.430;2023-04-03T18:07:37;12.80;81.50
55795;DHT22;41716;51.910;4.430;2023-04-03T18:12:39;12.30;82.70
55795;DHT22;41716;51.910;4.430;2023-04-03T18:17:41;12.10;83.60
55795;DHT22;41716;51.910;4.430;2023-04-03T18:22:45;12.20;84.00
55795;DHT22;41716;51.910;4.430;2023-04-03T18:27:47;11.90;85.00
55795;DHT22;41716;51.910;4.430;2023-04-03T18:32:49;11.90;85.40
55795;DHT22;41716;51.910;4.430;2023-04-03T18:37:52;12.00;86.40
55795;DHT22;41716;51.910;4.430;2023-04-03T18:42:54;12.00;86.90
55795;DHT22;41716;51.910;4.430;2023-04-03T18:47:56;11.80;87.40
55795;DHT22;41716;51.910;4.430;2023-04-03T18:52:59;11.30;88.00
55795;DHT22;41716;51.910;4.430;2023-04-03T18:58:00;11.60;89.30
55795;DHT22;41716;51.910;4.430;2023-04-03T19:03:03;11.70;88.60
55795;DHT22;41716;51.910;4.430;2023-04-03T19:08:06;11.50;88.90
55795;DHT22;41716;51.910;4.430;2023-04-03T19:13:08;11.30;89.30
55795;DHT22;41716;51.910;4.430;2023-04-03T19:18:09;11.10;90.10
55795;DHT22;41716;51.910;4.430;2023-04-03T19:23:12;11.30;90.20
55795;DHT22;41716;51.910;4.430;2023-04-03T19:28:14;11.10;90.70
55795;DHT22;41716;51.910;4.430;2023-04-03T19:33:16;10.90;90.80
55795;DHT22;41716;51.910;4.430;2023-04-03T19:38:19;10.60;91.20
55795;DHT22;41716;51.910;4.430;2023-04-03T19:43:21;10.80;91.00
55795;DHT22;41716;51.910;4.430;2023-04-03T19:48:23;10.90;90.90
55795;DHT22;41716;51.910;4.430;2023-04-03T19:53:27;10.60;91.10
55795;DHT22;41716;51.910;4.430;2023-04-03T19:58:29;10.70;91.30
55795;DHT22;41716;51.910;4.430;2023-04-03T20:03:31;10.60;91.30
55795;DHT22;41716;51.910;4.430;2023-04-03T20:08:35;10.30;91.70
55795;DHT22;41716;51.910;4.430;2023-04-03T20:13:37;10.20;91.90
55795;DHT22;41716;51.910;4.430;2023-04-03T20:18:39;10.00;91.80
55795;DHT22;41716;51.910;4.430;2023-04-03T20:23:43;10.10;91.70
55795;DHT22;41716;51.910;4.430;2023-04-03T20:28:44;10.10;91.90
55795;DHT22;41716;51.910;4.430;2023-04-03T20:33:46;9.90;92.30
55795;DHT22;41716;51.910;4.430;2023-04-03T20:38:49;10.10;92.20
55795;DHT22;41716;51.910;4.430;2023-04-03T20:43:51;9.80;92.20
55795;DHT22;41716;51.910;4.430;2023-04-03T20:48:53;9.70;92.30
55795;DHT22;41716;51.910;4.430;2023-04-03T20:53:57;9.60;92.50
55795;DHT22;41716;51.910;4.430;2023-04-03T20:58:59;9.40;92.60
55795;DHT22;41716;51.910;4.430;2023-04-03T21:04:05;9.60;92.50
55795;DHT22;41716;51.910;4.430;2023-04-03T21:20:31;9.40;92.80
55795;DHT22;41716;51.910;4.430;2023-04-03T21:25:33;9.30;93.00
55795;DHT22;41716;51.910;4.430;2023-04-03T21:30:35;9.20;92.70
55795;DHT22;41716;51.910;4.430;2023-04-03T21:35:38;9.00;92.60
55795;DHT22;41716;51.910;4.430;2023-04-03T21:40:40;9.20;92.70
55795;DHT22;41716;51.910;4.430;2023-04-03T21:45:45;9.20;92.60
55795;DHT22;41716;51.910;4.430;2023-04-03T21:50:49;8.90;92.40
55795;DHT22;41716;51.910;4.430;2023-04-03T21:55:53;8.90;92.70
55795;DHT22;41716;51.910;4.430;2023-04-03T22:00:55;8.90;92.80
55795;DHT22;41716;51.910;4.430;2023-04-03T22:05:58;8.60;93.20
55795;DHT22;41716;51.910;4.430;2023-04-03T22:11:00;8.90;93.00
55795;DHT22;41716;51.910;4.430;2023-04-03T22:16:03;8.70;93.10
55795;DHT22;41716;51.910;4.430;2023-04-03T22:21:06;8.70;93.20
55795;DHT22;41716;51.910;4.430;2023-04-03T22:26:09;8.70;93.40
55795;DHT22;41716;51.910;4.430;2023-04-03T22:31:11;8.80;93.20
55795;DHT22;41716;51.910;4.430;2023-04-03T22:36:15;8.80;93.00
55795;DHT22;41716;51.910;4.430;2023-04-03T22:41:16;8.70;93.00
55795;DHT22;41716;51.910;4.430;2023-04-03T22:46:18;8.60;93.20
55795;DHT22;41716;51.910;4.430;2023-04-03T22:51:21;8.60;93.40
55795;DHT22;41716;51.910;4.430;2023-04-03T22:56:23;8.60;93.50
55795;DHT22;41716;51.910;4.430;2023-04-03T23:01:24;8.60;93.50
55795;DHT22;41716;51.910;4.430;2023-04-03T23:06:27;8.50;93.90
55795;DHT22;41716;51.910;4.430;2023-04-03T23:11:29;8.50;94.00
55795;DHT22;41716;51.910;4.430;2023-04-03T23:16:31;8.30;94.50
55795;DHT22;41716;51.910;4.430;2023-04-03T23:21:34;8.10;94.70
55795;DHT22;41716;51.910;4.430;2023-04-03T23:26:35;8.10;94.80
55795;DHT22;41716;51.910;4.430;2023-04-03T23:31:37;8.00;94.80
55795;DHT22;41716;51.910;4.430;2023-04-03T23:36:40;8.30;94.70
55795;DHT22;41716;51.910;4.430;2023-04-03T23:41:42;8.20;94.70
55795;DHT22;41716;51.910;4.430;2023-04-03T23:46:44;8.00;94.90
55795;DHT22;41716;51.910;4.430;2023-04-03T23:51:47;8.00;94.80
55795;DHT22;41716;51.910;4.430;2023-04-03T23:56:49;7.80;95.20
